KLOZ

London-Corbin Arpt-Magee Field Airport

London, Kentucky, USA
METAR KLOZ 232253Z AUTO 28011KT 10SM OVC046 05/M02 A3003 RMK AO2 SLP171 T00501017
Observed Flight Rules
Jan-23 @ 22:53 UTC (24 minutes ago) Visual Flight Rules
Wind Visibility Clouds
280° at 11 knots 10 miles
  • Overcast at 4,600' AGL
Temperatures Readings
Current 5°C / 41°F
Dewpoint -2°C / 28°F
Humidity 61%
Altimeter 30.03" Hg
Pressure 1017.1 hPa
Elevation 362
METAR KLOZ 232253Z AUTO 28011KT 10SM OVC046 05/M02 A3003 RMK AO2 SLP171 T00501017
Observed Flight Rules
Jan-23 @ 22:53 UTC
(24 minutes ago)
VFR
Wind Visibility
280° at 11 knots 10 miles
Clouds
  • Overcast at 4,600' AGL
Temperature Dewpoint
5°C / 41°F -2°C / 28°F
Humidity Altimeter Pressure
61% 30.03" Hg 1017.1 hPa